Time;durP1;ratioP1;P1;durP2;ratioP2;P2;SDS_P1;SDS_P2;PMS_P1;PMS_P2;Temp;Humidity;BMP_temperature;BMP_pressure;BME280_temperature;BME280_humidity;BME280_pressure;Samples;Min_cycle;Max_cycle;Signal;HPM_P1;HPM_P2
2023/05/13 00:00:50;;;;;;;5.80;4.33;;;;;;;10.32;94.62;95564.75;6188785;23;20170;-85
2023/05/13 00:03:15;;;;;;;4.83;4.33;;;;;;;10.33;95.06;95561.19;6163974;23;20162;-84
2023/05/13 00:05:41;;;;;;;6.60;4.17;;;;;;;10.32;95.03;95564.75;6162985;23;20317;-84
2023/05/13 00:08:06;;;;;;;4.60;4.20;;;;;;;10.30;95.39;95553.72;6187193;23;20224;-84
2023/05/13 00:10:33;;;;;;;4.93;3.80;;;;;;;10.24;95.10;95553.47;6162554;23;20179;-84
2023/05/13 00:13:03;;;;;;;6.93;4.13;;;;;;;10.28;95.59;95558.25;6188268;23;20178;-85
2023/05/13 00:15:39;;;;;;;6.43;4.37;;;;;;;10.21;95.13;95555.38;6162115;23;20165;-84
2023/05/13 00:18:12;;;;;;;4.77;4.27;;;;;;;10.09;96.41;95556.53;6161976;23;20161;-84
2023/05/13 00:20:45;;;;;;;5.50;4.90;;;;;;;10.06;96.99;95554.22;6162926;23;20744;-85
2023/05/13 00:23:16;;;;;;;4.27;3.93;;;;;;;10.15;95.45;95558.53;6185659;23;20225;-84
2023/05/13 00:25:47;;;;;;;4.70;4.20;;;;;;;10.11;96.24;95564.16;6186298;23;20158;-84
2023/05/13 00:28:20;;;;;;;6.10;4.67;;;;;;;10.13;96.31;95562.25;6161818;23;20682;-85
2023/05/13 00:30:45;;;;;;;4.30;3.90;;;;;;;10.05;95.92;95556.94;6162639;23;20175;-85
2023/05/13 00:33:15;;;;;;;4.73;4.33;;;;;;;10.03;96.01;95553.69;6161090;23;20238;-85
2023/05/13 00:35:43;;;;;;;4.73;4.33;;;;;;;10.01;96.85;95551.25;6161748;23;20163;-84
2023/05/13 00:38:09;;;;;;;5.57;5.07;;;;;;;10.06;96.27;95553.38;6160150;23;20166;-85
2023/05/13 00:40:41;;;;;;;7.47;6.70;;;;;;;10.04;95.77;95555.31;6185305;23;20509;-84
2023/05/13 00:43:07;;;;;;;6.87;6.03;;;;;;;10.03;95.91;95561.47;6161405;23;20608;-84
2023/05/13 00:45:40;;;;;;;9.63;6.90;;;;;;;9.93;97.30;95559.75;6160455;23;20216;-83
2023/05/13 00:48:14;;;;;;;6.37;5.77;;;;;;;9.92;97.15;95555.50;6160665;23;20182;-84
2023/05/13 00:50:43;;;;;;;8.60;7.03;;;;;;;9.87;96.81;95549.94;6162792;23;20243;-84
2023/05/13 00:53:09;;;;;;;7.17;6.47;;;;;;;9.86;96.36;95550.06;6162798;23;20604;-84
2023/05/13 00:55:42;;;;;;;7.00;5.93;;;;;;;9.81;96.82;95552.31;6161836;23;20587;-83
2023/05/13 00:58:07;;;;;;;6.17;5.57;;;;;;;9.83;97.25;95553.78;6186406;23;20166;-84
2023/05/13 01:00:40;;;;;;;7.87;6.43;;;;;;;9.80;96.79;95548.84;6186452;23;20695;-84
2023/05/13 01:03:14;;;;;;;5.93;5.33;;;;;;;9.80;96.92;95546.25;6161887;23;20170;-85
2023/05/13 01:06:31;;;;;;;5.90;5.40;;;;;;;9.85;96.40;95548.44;6186579;23;20167;-85
2023/05/13 01:09:17;;;;;;;5.43;4.93;;;;;;;9.78;96.84;95550.78;6107335;23;20339;-84
2023/05/13 01:12:06;;;;;;;5.20;4.70;;;;;;;9.84;97.04;95545.03;6186574;23;20170;-84
2023/05/13 01:14:40;;;;;;;5.63;4.70;;;;;;;9.91;96.69;95551.28;6186152;23;20242;-84
2023/05/13 01:17:15;;;;;;;6.67;4.83;;;;;;;10.00;96.47;95554.00;6185282;23;20212;-84
2023/05/13 01:20:05;;;;;;;5.13;4.70;;;;;;;9.90;97.57;95554.03;6161353;23;20177;-84
2023/05/13 01:22:31;;;;;;;6.23;4.73;;;;;;;9.85;96.98;95548.44;6184192;23;20162;-83
2023/05/13 01:24:56;;;;;;;4.70;4.30;;;;;;;9.86;97.00;95547.47;6160721;23;20552;-84
2023/05/13 01:27:22;;;;;;;5.93;5.00;;;;;;;9.81;96.59;95550.53;6159572;23;20186;-83
2023/05/13 01:29:51;;;;;;;5.20;4.73;;;;;;;9.86;96.81;95555.25;6160508;23;20497;-82
2023/05/13 01:32:22;;;;;;;4.97;4.27;;;;;;;9.85;95.73;95551.84;6160700;23;20462;-84
2023/05/13 01:34:52;;;;;;;4.83;4.27;;;;;;;9.80;96.25;95554.03;6185820;23;20167;-84
2023/05/13 01:37:19;;;;;;;5.00;4.60;;;;;;;9.72;97.26;95559.16;6160280;23;20151;-84
2023/05/13 01:39:50;;;;;;;7.20;4.97;;;;;;;9.78;96.05;95558.56;6160528;23;20514;-84
2023/05/13 01:42:16;;;;;;;5.00;4.50;;;;;;;9.74;97.10;95559.00;6162299;23;20147;-83
2023/05/13 01:44:53;;;;;;;5.30;4.80;;;;;;;9.68;96.64;95555.19;6161687;23;20161;-84
2023/05/13 01:47:19;;;;;;;6.03;4.97;;;;;;;9.53;97.20;95560.00;6162098;23;20204;-84
2023/05/13 01:49:44;;;;;;;5.40;4.60;;;;;;;9.51;97.81;95561.94;6186720;23;20166;-84
2023/05/13 01:52:10;;;;;;;5.77;4.73;;;;;;;9.57;97.24;95555.38;6161807;23;20185;-84
2023/05/13 01:54:35;;;;;;;6.00;4.83;;;;;;;9.51;97.14;95550.75;6189149;23;20151;-84
2023/05/13 01:57:02;;;;;;;5.43;4.93;;;;;;;9.37;97.44;95554.63;6161970;23;20154;-84
2023/05/13 01:59:27;;;;;;;5.23;4.73;;;;;;;9.43;97.33;95561.81;6187460;23;20262;-84
2023/05/13 02:01:53;;;;;;;8.03;6.03;;;;;;;9.39;96.96;95559.66;6185669;23;20494;-84
2023/05/13 02:04:23;;;;;;;7.80;5.67;;;;;;;9.31;97.68;95555.97;6186457;23;20208;-84
2023/05/13 02:06:52;;;;;;;6.10;5.50;;;;;;;9.47;96.97;95567.53;6185983;23;20161;-82
2023/05/13 02:09:28;;;;;;;8.63;5.63;;;;;;;9.46;96.16;95565.91;6187865;23;20154;-84
2023/05/13 02:11:54;;;;;;;5.83;4.70;;;;;;;9.30;97.75;95563.91;6163611;23;20153;-84
2023/05/13 02:14:19;;;;;;;5.60;5.10;;;;;;;9.46;96.68;95571.91;6162798;23;20190;-83
2023/05/13 02:16:54;;;;;;;6.63;4.87;;;;;;;9.48;96.42;95564.81;6161770;23;20619;-84
2023/05/13 02:19:23;;;;;;;5.23;4.73;;;;;;;9.28;97.13;95564.03;6163662;23;20231;-84
2023/05/13 02:22:02;;;;;;;5.47;4.97;;;;;;;9.38;97.58;95563.22;6161975;23;20163;-84
2023/05/13 02:24:29;;;;;;;4.93;4.43;;;;;;;9.34;97.17;95560.88;6162653;23;20154;-84
2023/05/13 02:26:55;;;;;;;5.20;4.80;;;;;;;9.30;96.95;95569.06;6160297;23;20155;-83
2023/05/13 02:29:20;;;;;;;8.33;4.97;;;;;;;9.24;97.12;95561.84;6186148;23;20617;-84
2023/05/13 02:31:54;;;;;;;4.93;4.43;;;;;;;9.30;96.47;95564.72;6186271;23;20154;-84
2023/05/13 02:34:19;;;;;;;5.00;4.50;;;;;;;9.19;96.50;95567.47;6161577;23;20224;-84
2023/05/13 02:36:45;;;;;;;5.00;4.50;;;;;;;9.24;96.55;95570.44;6160817;23;20237;-84
2023/05/13 02:39:12;;;;;;;7.07;5.10;;;;;;;9.23;96.85;95563.63;6161274;23;20774;-84
2023/05/13 02:41:44;;;;;;;4.57;3.93;;;;;;;9.19;96.25;95566.63;6161356;23;20163;-83
2023/05/13 02:44:17;;;;;;;4.33;3.90;;;;;;;9.16;96.27;95562.53;6161000;23;20174;-84
2023/05/13 02:46:43;;;;;;;5.10;4.60;;;;;;;9.17;95.16;95564.16;6161749;23;20162;-84
2023/05/13 02:49:09;;;;;;;4.77;4.37;;;;;;;9.13;95.85;95562.81;6185834;23;20333;-83
2023/05/13 02:51:37;;;;;;;4.23;3.87;;;;;;;9.04;97.21;95555.88;6161578;23;20174;-84
2023/05/13 02:54:02;;;;;;;6.00;4.57;;;;;;;8.98;96.81;95557.25;6161879;23;20165;-83
2023/05/13 02:56:28;;;;;;;5.40;4.80;;;;;;;9.00;97.04;95564.88;6160995;23;20186;-83
2023/05/13 02:58:53;;;;;;;4.73;4.20;;;;;;;8.99;96.57;95561.47;6161708;23;20595;-83
2023/05/13 03:01:28;;;;;;;5.03;4.50;;;;;;;8.98;96.23;95559.00;6161610;23;20213;-83
2023/05/13 03:04:00;;;;;;;4.47;4.07;;;;;;;8.96;96.12;95561.75;6162547;23;20169;-84
2023/05/13 03:06:25;;;;;;;5.40;4.90;;;;;;;8.90;96.50;95558.88;6159384;23;20158;-84
2023/05/13 03:08:50;;;;;;;5.50;4.33;;;;;;;8.86;96.08;95562.72;6160433;23;20503;-84
2023/05/13 03:11:20;;;;;;;5.00;4.50;;;;;;;8.89;96.50;95562.44;6160868;23;20257;-84
2023/05/13 03:13:45;;;;;;;4.50;4.10;;;;;;;8.86;96.69;95558.34;6184941;23;20222;-83
2023/05/13 03:16:10;;;;;;;4.80;4.30;;;;;;;8.87;96.08;95565.16;6160605;23;20165;-83
2023/05/13 03:18:36;;;;;;;5.03;4.53;;;;;;;8.87;95.88;95564.34;6159986;23;20494;-83
2023/05/13 03:21:01;;;;;;;4.97;4.47;;;;;;;8.68;97.11;95568.56;6160631;23;20503;-83
2023/05/13 03:23:27;;;;;;;5.73;4.67;;;;;;;8.70;97.06;95563.25;6184799;23;20257;-83
2023/05/13 03:25:52;;;;;;;5.37;4.87;;;;;;;8.62;97.92;95568.28;6160119;23;20166;-82
2023/05/13 03:28:18;;;;;;;5.60;5.10;;;;;;;8.63;97.41;95562.97;6159979;23;20217;-83
2023/05/13 03:30:43;;;;;;;5.33;4.63;;;;;;;8.62;97.04;95566.50;6160095;23;20181;-83
2023/05/13 03:33:09;;;;;;;4.80;4.40;;;;;;;8.63;96.76;95562.16;6185354;23;20253;-83
2023/05/13 03:35:34;;;;;;;4.87;4.47;;;;;;;8.56;96.53;95564.44;6185252;23;20154;-83
2023/05/13 03:38:00;;;;;;;5.73;4.40;;;;;;;8.56;97.47;95566.22;6159543;23;20162;-83
2023/05/13 03:40:28;;;;;;;5.30;4.40;;;;;;;8.54;96.99;95574.13;6160317;23;20201;-83
2023/05/13 03:42:54;;;;;;;5.67;4.23;;;;;;;8.48;97.16;95579.81;6185944;23;20153;-84
2023/05/13 03:45:19;;;;;;;6.30;5.10;;;;;;;8.51;97.20;95577.00;6185273;23;20174;-83
2023/05/13 03:47:44;;;;;;;4.77;4.37;;;;;;;8.46;96.69;95574.78;6183830;23;20285;-84
2023/05/13 03:50:10;;;;;;;6.47;4.77;;;;;;;8.47;96.93;95578.19;6160258;23;20187;-83
2023/05/13 03:52:36;;;;;;;5.50;4.90;;;;;;;8.46;97.40;95585.13;6161496;23;20605;-84
2023/05/13 03:55:01;;;;;;;5.53;4.93;;;;;;;8.49;96.57;95581.50;6160213;23;20158;-83
2023/05/13 03:57:30;;;;;;;7.10;5.10;;;;;;;8.58;96.22;95585.88;6160212;23;20150;-84
2023/05/13 03:59:55;;;;;;;5.73;4.47;;;;;;;8.57;95.58;95589.41;6159813;23;20178;-84
2023/05/13 04:02:22;;;;;;;4.43;4.07;;;;;;;8.52;94.88;95588.97;6184476;23;20177;-83
2023/05/13 04:04:48;;;;;;;5.23;4.73;;;;;;;8.43;95.73;95589.78;6161079;23;20193;-84
2023/05/13 04:07:13;;;;;;;5.73;5.23;;;;;;;8.58;94.55;95585.88;6184009;23;20206;-84
2023/05/13 04:09:38;;;;;;;5.80;4.70;;;;;;;8.54;94.26;95591.44;6159443;23;20254;-82
2023/05/13 04:12:04;;;;;;;6.67;4.57;;;;;;;8.65;93.92;95586.94;6158077;23;20212;-83
2023/05/13 04:14:39;;;;;;;6.07;4.80;;;;;;;8.72;92.86;95592.41;6184709;23;20158;-84
2023/05/13 04:20:14;;;;;;;6.00;4.50;;;;;;;8.66;93.14;95588.59;6128372;23;20189;-84
2023/05/13 04:23:35;;;;;;;7.13;5.20;;;;;;;8.86;93.01;95594.59;6124083;23;20174;-83
2023/05/13 04:26:11;;;;;;;5.30;4.33;;;;;;;8.75;92.05;95587.78;6126906;23;20247;-83
2023/05/13 04:29:05;;;;;;;5.10;4.20;;;;;;;8.96;91.45;95594.59;6103733;23;20182;-81
2023/05/13 04:31:42;;;;;;;4.80;4.37;;;;;;;9.01;91.35;95597.59;6130419;23;20186;-83
2023/05/13 04:34:24;;;;;;;4.73;4.17;;;;;;;9.13;88.96;95591.31;6102382;23;20163;-81
2023/05/13 04:41:12;;;;;;;5.03;4.40;;;;;;;9.22;88.68;95600.88;6151942;23;20217;-83
2023/05/13 04:47:04;;;;;;;9.43;4.30;;;;;;;9.28;88.24;95600.31;6101411;23;20680;-84
2023/05/13 04:50:09;;;;;;;4.83;4.33;;;;;;;9.33;88.28;95600.69;6075590;23;20208;-85
2023/05/13 04:55:35;;;;;;;4.37;3.87;;;;;;;9.61;86.12;95600.78;6096266;23;20160;-84
2023/05/13 04:58:27;;;;;;;4.90;4.00;;;;;;;9.78;85.55;95601.84;6097955;23;20159;-84
2023/05/13 05:34:48;;;;;;;5.00;3.80;;;;;;;10.15;84.13;95640.75;6215412;23;20204;-86
2023/05/13 05:40:32;;;;;;;4.33;3.93;;;;;;;9.78;84.16;95640.75;6185692;23;20288;-86
2023/05/13 05:42:58;;;;;;;3.93;3.47;;;;;;;9.99;83.00;95641.38;6184385;23;20246;-85
2023/05/13 05:45:53;;;;;;;4.73;4.33;;;;;;;9.90;83.57;95648.22;6159582;23;20611;-88
2023/05/13 05:57:22;;;;;;;5.37;4.37;;;;;;;9.86;86.27;95649.44;6213404;22;20205;-85
2023/05/13 06:10:54;;;;;;;5.00;4.53;;;;;;;10.22;85.39;95654.81;6123902;23;20832;-84
2023/05/13 06:24:59;;;;;;;;;;;;;;;;;;;;;
2023/05/13 06:38:44;;;;;;;;;;;;;;;;;;;;;
2023/05/13 06:55:13;;;;;;;4.67;4.27;;;;;;;10.91;81.43;95675.13;6215234;22;20201;-84
2023/05/13 06:58:20;;;;;;;4.40;4.00;;;;;;;11.28;79.67;95676.78;6216148;23;20162;-85
2023/05/13 07:07:14;;;;;;;6.47;4.07;;;;;;;11.23;78.86;95676.44;6215789;22;20205;-86
2023/05/13 07:34:43;;;;;;;;;;;;;;;;;;;;;
2023/05/13 07:38:02;;;;;;;5.17;4.10;;;;;;;12.93;70.24;95683.69;5924309;24;20254;-86
2023/05/13 07:48:08;;;;;;;6.30;4.33;;;;;;;12.52;70.85;95688.72;5789579;24;20171;-83
2023/05/13 07:55:04;;;;;;;4.50;3.87;;;;;;;12.35;72.30;95679.19;5791188;24;20182;-84
2023/05/13 08:01:41;;;;;;;;;;;;;;;;;;;;;
2023/05/13 08:04:47;;;;;;;;;;;;;;;;;;;;;
2023/05/13 08:41:18;;;;;;;4.50;4.10;;;;;;;12.31;73.30;95703.94;6018251;23;20182;-85
2023/05/13 09:11:33;;;;;;;6.27;5.47;;;;;;;12.78;71.64;95712.13;6188484;23;20264;-83
2023/05/13 09:25:24;;;;;;;;;;;;;;;;;;;;;
2023/05/13 09:31:47;;;;;;;5.17;4.63;;;;;;;12.54;72.72;95720.63;5984660;23;20598;-84
2023/05/13 09:35:09;;;;;;;5.23;4.73;;;;;;;12.28;74.26;95712.88;5985012;24;20163;-86
2023/05/13 09:45:49;;;;;;;;;;;;;;;;;;;;;
2023/05/13 11:49:11;;;;;;;9.47;4.07;;;;;;;14.68;69.80;95747.69;6180304;23;20437;31
2023/05/13 13:51:36;;;;;;;;;;;;;;;;;;;;;
2023/05/13 14:00:40;;;;;;;3.50;3.10;;;;;;;17.23;55.96;95690.31;6196409;22;20539;-82
2023/05/13 14:16:17;;;;;;;3.63;3.33;;;;;;;15.93;58.12;95701.41;6122148;23;20175;-86
2023/05/13 14:18:48;;;;;;;3.03;2.83;;;;;;;15.69;59.95;95697.16;6100366;23;20266;-85
2023/05/13 14:21:13;;;;;;;3.67;3.33;;;;;;;15.75;58.06;95699.09;6125175;23;20188;-86
2023/05/13 14:23:40;;;;;;;3.50;3.20;;;;;;;15.86;58.91;95699.47;6125222;23;20164;-85
2023/05/13 14:26:07;;;;;;;3.72;3.40;;;;;;;15.47;59.03;95698.78;6124756;23;20170;-87
2023/05/13 14:28:32;;;;;;;4.78;4.38;;;;;;;15.73;58.94;95696.66;6124004;23;20218;-86
2023/05/13 14:30:58;;;;;;;3.47;3.17;;;;;;;15.81;58.19;95696.59;6076448;23;20208;-86
2023/05/13 14:33:23;;;;;;;3.90;3.60;;;;;;;15.64;58.86;95687.22;6100028;23;20339;-86
2023/05/13 14:35:49;;;;;;;3.55;3.25;;;;;;;15.87;59.28;95692.44;6076363;23;20198;-86
2023/05/13 14:38:15;;;;;;;3.22;3.03;;;;;;;16.01;58.59;95689.03;6077366;23;20156;-86
2023/05/13 14:40:40;;;;;;;3.50;3.20;;;;;;;15.96;58.96;95680.91;6076586;23;20276;-87
2023/05/13 14:43:06;;;;;;;3.50;3.20;;;;;;;15.88;59.03;95682.78;6100068;23;20160;-86
2023/05/13 14:45:34;;;;;;;5.47;3.93;;;;;;;15.74;59.09;95687.00;6085384;23;20230;-86
2023/05/13 14:48:00;;;;;;;4.13;3.72;;;;;;;15.34;59.79;95681.00;6189235;23;20174;-86
2023/05/13 14:50:25;;;;;;;4.00;3.60;;;;;;;15.83;59.04;95675.47;6165179;23;20253;-85
2023/05/13 14:52:51;;;;;;;3.35;3.00;;;;;;;15.65;59.18;95677.56;6165834;23;20149;-87
2023/05/13 14:55:16;;;;;;;3.63;3.30;;;;;;;15.98;59.20;95673.66;6166573;23;20158;-86
2023/05/13 14:57:42;;;;;;;3.90;3.60;;;;;;;16.40;57.70;95661.78;6164904;23;20157;-85
2023/05/13 15:00:08;;;;;;;3.45;3.20;;;;;;;16.56;57.33;95666.84;6165476;23;20300;-85
2023/05/13 15:02:36;;;;;;;4.03;3.33;;;;;;;15.92;56.78;95666.53;6190542;23;20620;-87
2023/05/13 15:05:01;;;;;;;3.70;3.40;;;;;;;15.86;58.49;95662.81;6165493;23;20154;-86
2023/05/13 15:07:27;;;;;;;3.88;3.45;;;;;;;15.99;57.62;95662.22;6164760;23;20185;-85
2023/05/13 15:09:53;;;;;;;3.20;3.00;;;;;;;15.78;59.09;95659.44;6165952;23;20503;-85
2023/05/13 15:12:19;;;;;;;3.47;3.17;;;;;;;15.88;59.84;95662.63;6190153;23;20171;-87
2023/05/13 15:14:55;;;;;;;3.55;3.25;;;;;;;16.05;59.81;95660.69;6166090;23;20625;-86
2023/05/13 15:17:21;;;;;;;4.22;3.70;;;;;;;15.67;59.91;95657.25;6189513;23;20145;-87
2023/05/13 15:19:46;;;;;;;4.67;3.70;;;;;;;15.90;59.54;95659.81;6165581;23;20770;-86
2023/05/13 15:22:17;;;;;;;4.05;3.65;;;;;;;15.87;61.20;95661.00;6165309;23;20233;-86
2023/05/13 15:24:42;;;;;;;3.72;3.42;;;;;;;16.29;59.00;95652.56;6189560;23;20221;-85
2023/05/13 15:27:08;;;;;;;6.15;4.18;;;;;;;16.38;58.21;95654.13;6187915;23;20195;-86
2023/05/13 15:29:39;;;;;;;3.80;3.42;;;;;;;16.59;57.52;95655.19;6165251;23;20232;-90
2023/05/13 15:32:05;;;;;;;4.45;4.05;;;;;;;16.59;57.16;95655.19;6165741;23;20166;-89
2023/05/13 15:34:31;;;;;;;4.30;3.90;;;;;;;16.52;56.84;95652.50;6165580;23;20158;-85
2023/05/13 15:37:01;;;;;;;5.25;4.20;;;;;;;16.68;56.60;95648.84;6166170;23;20165;-87
2023/05/13 15:39:26;;;;;;;5.65;4.30;;;;;;;16.50;57.55;95654.47;6166455;23;20150;-85
2023/05/13 15:41:55;;;;;;;3.88;3.58;;;;;;;16.24;56.99;95648.84;6166985;23;20158;-87
2023/05/13 15:44:23;;;;;;;4.10;3.80;;;;;;;15.90;59.19;95650.16;6167381;23;20154;-87
2023/05/13 15:47:00;;;;;;;4.47;4.07;;;;;;;15.57;60.22;95658.28;6192349;23;20162;-87
2023/05/13 15:49:26;;;;;;;4.68;4.28;;;;;;;15.18;61.68;95647.09;6169322;23;20212;-86
2023/05/13 15:51:53;;;;;;;6.53;4.78;;;;;;;15.24;61.37;95652.47;6166716;23;20181;-86
2023/05/13 15:54:18;;;;;;;5.15;4.63;;;;;;;15.43;61.16;95648.56;6166030;23;20158;-86
2023/05/13 15:56:44;;;;;;;5.07;3.88;;;;;;;15.47;60.80;95647.25;6165277;23;20629;-86
2023/05/13 15:59:09;;;;;;;4.40;3.80;;;;;;;15.41;60.71;95653.16;6166118;23;20158;-85
2023/05/13 16:01:40;;;;;;;3.72;3.42;;;;;;;15.96;59.79;95652.09;6165361;23;20192;-85
2023/05/13 16:04:08;;;;;;;4.50;4.20;;;;;;;16.13;58.20;95645.69;6166265;23;20154;-85
2023/05/13 16:06:36;;;;;;;4.35;3.58;;;;;;;16.32;57.84;95639.09;6189575;23;20600;-85
2023/05/13 16:09:04;;;;;;;5.25;3.40;;;;;;;15.80;59.37;95633.91;6165182;23;20616;-85
2023/05/13 16:11:29;;;;;;;4.05;3.65;;;;;;;15.86;60.34;95639.25;6163906;23;20686;-85
2023/05/13 16:13:55;;;;;;;4.20;3.90;;;;;;;15.78;59.79;95641.13;6163364;23;20162;-87
2023/05/13 16:16:31;;;;;;;3.60;3.30;;;;;;;15.49;60.59;95645.25;6162681;23;20158;-87
2023/05/13 16:18:57;;;;;;;4.38;3.58;;;;;;;15.46;60.87;95643.00;6164116;23;20584;-87
2023/05/13 16:24:44;;;;;;;3.70;3.40;;;;;;;15.08;61.15;95643.91;6214369;23;20556;-88
2023/05/13 16:27:20;;;;;;;3.80;3.50;;;;;;;15.02;62.28;95642.81;6161264;23;20236;-87
2023/05/13 16:32:59;;;;;;;4.17;3.87;;;;;;;14.96;62.04;95646.91;6192418;23;20162;-88
2023/05/13 16:35:45;;;;;;;5.10;4.00;;;;;;;14.99;62.04;95643.94;6163380;23;20612;-90
2023/05/13 16:44:11;;;;;;;3.78;3.47;;;;;;;14.90;63.28;95650.22;6212704;22;20256;-87
2023/05/13 16:47:08;;;;;;;4.70;4.10;;;;;;;14.77;64.20;95646.53;6092821;23;20199;-87
2023/05/13 16:53:29;;;;;;;4.77;4.37;;;;;;;14.59;64.06;95652.00;6093158;23;20156;-88
2023/05/13 16:56:08;;;;;;;5.73;3.57;;;;;;;14.52;65.08;95658.88;6092194;23;20168;-91
2023/05/13 16:58:48;;;;;;;4.67;4.17;;;;;;;14.54;65.33;95649.88;6068722;23;20168;-88
2023/05/13 17:01:46;;;;;;;4.20;3.90;;;;;;;14.52;65.76;95651.06;6068001;23;20268;-87
2023/05/13 17:04:25;;;;;;;6.63;5.80;;;;;;;14.37;66.36;95643.88;6092411;23;20169;-88
2023/05/13 17:07:21;;;;;;;;;;;;;;;;;;;;;
2023/05/13 17:09:52;;;;;;;6.23;4.90;;;;;;;14.32;67.23;95643.59;6092391;23;20268;-84
2023/05/13 17:12:19;;;;;;;6.37;4.70;;;;;;;14.20;66.73;95649.31;6069081;23;20215;-86
2023/05/13 17:15:21;;;;;;;5.50;5.00;;;;;;;14.23;67.73;95643.78;6044178;23;20165;-87
2023/05/13 17:17:49;;;;;;;5.20;4.67;;;;;;;14.01;68.42;95651.31;6110983;23;20158;-86
2023/05/13 17:20:20;;;;;;;5.10;4.70;;;;;;;14.03;68.03;95644.13;6133478;23;20236;-88
2023/05/13 17:23:00;;;;;;;4.63;4.23;;;;;;;14.07;68.49;95647.22;6134280;23;20163;-87
2023/05/13 17:25:30;;;;;;;4.80;4.30;;;;;;;14.00;68.69;95641.84;6129920;23;20163;-86
2023/05/13 17:27:59;;;;;;;7.10;5.20;;;;;;;13.75;69.27;95642.88;6171515;23;20237;-89
2023/05/13 17:30:29;;;;;;;6.03;5.13;;;;;;;13.79;69.20;95645.00;6161366;23;20171;-91
2023/05/13 17:32:58;;;;;;;5.43;4.93;;;;;;;13.76;68.88;95647.09;6187814;22;20154;-89
2023/05/13 17:35:26;;;;;;;5.30;4.80;;;;;;;13.73;69.00;95647.44;6162431;22;20143;-90
2023/05/13 17:37:51;;;;;;;5.30;4.73;;;;;;;13.70;70.03;95645.97;6161976;22;20146;-88
2023/05/13 17:40:22;;;;;;;5.40;4.87;;;;;;;13.70;69.68;95648.59;6136556;23;20178;-87
2023/05/13 17:42:50;;;;;;;6.03;5.40;;;;;;;13.74;69.70;95642.06;6137590;23;20151;-87
2023/05/13 17:45:20;;;;;;;7.13;6.53;;;;;;;13.81;69.71;95637.00;6135803;23;20170;-86
2023/05/13 17:47:45;;;;;;;5.93;5.43;;;;;;;13.76;70.20;95636.66;6134511;23;20695;-86
2023/05/13 17:50:13;;;;;;;6.07;5.43;;;;;;;13.72;70.29;95641.41;6134733;23;20183;-86
2023/05/13 17:52:47;;;;;;;5.70;5.20;;;;;;;13.67;71.21;95641.06;6159286;23;20165;-87
2023/05/13 17:56:09;;;;;;;6.07;5.57;;;;;;;13.69;71.59;95644.31;6135504;23;20217;-86
2023/05/13 17:58:37;;;;;;;7.07;6.37;;;;;;;13.64;70.63;95646.63;6159381;23;20174;-86
2023/05/13 18:01:22;;;;;;;8.27;6.50;;;;;;;13.76;70.28;95644.50;6159848;23;20186;-87
2023/05/13 18:04:00;;;;;;;6.90;6.20;;;;;;;13.66;71.53;95647.28;6134149;23;20158;-87
2023/05/13 18:10:30;;;;;;;6.33;5.43;;;;;;;13.68;71.40;95650.53;6185411;23;20260;-85
2023/05/13 18:13:05;;;;;;;6.50;5.90;;;;;;;13.57;71.83;95653.47;6159451;23;20166;-88
2023/05/13 18:15:33;;;;;;;5.83;5.33;;;;;;;13.62;71.96;95653.81;6136144;23;20161;-88
2023/05/13 18:18:02;;;;;;;5.57;5.07;;;;;;;13.58;72.37;95658.53;6134871;23;20247;-87
2023/05/13 18:20:43;;;;;;;7.43;5.00;;;;;;;13.57;72.02;95654.28;6159514;23;20744;-88
2023/05/13 18:23:08;;;;;;;6.67;5.93;;;;;;;13.51;72.44;95648.91;6159827;23;20165;-87
2023/05/13 18:25:34;;;;;;;6.20;5.53;;;;;;;13.46;73.01;95653.81;6159983;23;20163;-88
2023/05/13 18:28:02;;;;;;;7.00;6.30;;;;;;;13.48;73.05;95657.06;6134941;23;20265;-88
2023/05/13 18:30:28;;;;;;;7.03;6.33;;;;;;;13.42;73.35;95653.28;6136529;23;20249;-88
2023/05/13 18:32:59;;;;;;;8.80;7.53;;;;;;;13.46;73.11;95664.25;6135360;23;20162;-87
2023/05/13 18:35:28;;;;;;;12.17;8.57;;;;;;;13.48;73.53;95664.88;6134906;23;20550;-87
2023/05/13 18:37:53;;;;;;;11.13;9.50;;;;;;;13.45;73.69;95666.03;6159477;23;20234;-88
2023/05/13 18:40:22;;;;;;;8.47;7.67;;;;;;;13.30;74.32;95658.03;6159251;23;20687;-87
2023/05/13 18:42:50;;;;;;;10.97;9.80;;;;;;;13.28;74.49;95665.19;6134220;23;20159;-88
2023/05/13 18:45:21;;;;;;;9.60;8.60;;;;;;;13.22;75.10;95668.44;6135121;23;20198;-88
2023/05/13 18:47:46;;;;;;;10.03;9.03;;;;;;;13.20;75.51;95669.59;6158752;23;20182;-88
2023/05/13 18:50:12;;;;;;;17.23;15.17;;;;;;;13.13;76.00;95664.16;6159268;23;20212;-89
2023/05/13 18:52:38;;;;;;;17.07;14.03;;;;;;;13.15;76.05;95667.41;6159438;23;20224;-87
2023/05/13 18:55:04;;;;;;;16.60;14.80;;;;;;;13.07;76.25;95658.75;6135116;23;20197;-87
2023/05/13 18:57:36;;;;;;;12.13;11.03;;;;;;;13.04;76.79;95659.91;6134440;23;20605;-86
2023/05/13 19:00:09;;;;;;;9.83;8.93;;;;;;;13.02;76.99;95664.47;6134717;23;20179;-86
2023/05/13 19:02:35;;;;;;;9.17;8.27;;;;;;;12.93;77.75;95663.63;6160297;23;20151;-86
2023/05/13 19:05:00;;;;;;;7.80;7.10;;;;;;;12.93;77.83;95665.44;6134156;23;20165;-86
2023/05/13 19:07:26;;;;;;;13.93;9.90;;;;;;;12.94;77.69;95672.28;6134492;23;20170;-89
2023/05/13 19:09:51;;;;;;;9.30;7.27;;;;;;;12.94;77.53;95672.28;6160220;23;20217;-86
2023/05/13 19:12:17;;;;;;;8.00;6.87;;;;;;;12.91;77.98;95677.81;6159005;23;20163;-86
2023/05/13 19:14:42;;;;;;;7.63;7.03;;;;;;;12.86;78.63;95672.25;6135843;23;20635;-86
2023/05/13 19:17:25;;;;;;;7.83;7.07;;;;;;;12.87;78.74;95671.25;6133560;23;20169;-87
2023/05/13 19:20:19;;;;;;;9.20;8.30;;;;;;;12.80;79.79;95676.28;6155006;23;20632;-86
2023/05/13 19:23:22;;;;;;;10.50;9.50;;;;;;;12.69;80.42;95680.00;6157726;23;20679;-86
2023/05/13 19:26:20;;;;;;;10.37;8.20;;;;;;;12.80;79.44;95675.47;6117470;23;20159;-87
2023/05/13 19:35:53;;;;;;;8.63;7.83;;;;;;;12.69;79.31;95671.38;6117879;23;20164;-86
2023/05/13 19:45:27;;;;;;;7.87;7.07;;;;;;;12.70;78.76;95689.44;6089342;23;20685;-88
2023/05/13 19:48:47;;;;;;;8.90;8.03;;;;;;;12.73;79.24;95696.97;6088725;23;20203;-86
2023/05/13 19:51:43;;;;;;;12.53;9.50;;;;;;;12.64;79.74;95697.91;6063986;23;20196;-88
2023/05/13 19:54:14;;;;;;;10.40;9.40;;;;;;;12.55;80.27;95698.03;6087736;23;20184;-86
2023/05/13 19:56:55;;;;;;;11.13;10.10;;;;;;;12.50;81.65;95690.69;6064764;23;20168;-86
2023/05/13 20:03:31;;;;;;;8.13;7.33;;;;;;;12.36;81.11;95693.84;6074113;23;20165;-87
2023/05/13 20:34:54;;;;;;;;;;;;;;;;;;;;;
2023/05/13 20:53:00;;;;;;;17.60;13.27;;;;;;;11.22;86.22;95692.97;5760942;24;20215;-86
2023/05/13 20:59:54;;;;;;;12.63;10.47;;;;;;;11.37;86.04;95695.88;5759286;24;20195;-86
2023/05/13 21:12:46;;;;;;;10.80;9.67;;;;;;;11.57;86.07;95690.38;6210354;22;20197;-87
2023/05/13 22:04:38;;;;;;;;;;;;;;;;;;;;;
2023/05/13 22:14:35;;;;;;;15.23;13.73;;;;;;;11.44;87.95;95671.72;5977344;24;20250;-86
2023/05/13 22:17:56;;;;;;;14.77;11.30;;;;;;;11.49;87.79;95672.09;5920389;24;20256;-87
2023/05/13 22:37:55;;;;;;;11.00;9.80;;;;;;;11.53;87.94;95659.59;6120225;23;20531;-88
2023/05/13 23:19:33;;;;;;;10.80;9.70;;;;;;;11.66;87.96;95625.38;5815743;24;20190;-88
